createdAt,value
2018-12-14T00:03:13.171Z,96710.19
2018-12-14T00:08:06.451Z,96699.09
2018-12-14T00:12:59.767Z,96693.61
2018-12-14T00:17:53.045Z,96699.42
2018-12-14T00:22:46.331Z,96706.00
2018-12-14T00:43:53.379Z,96716.44
2018-12-14T00:48:46.730Z,96714.81
2018-12-14T00:53:40.096Z,96722.55
2018-12-14T00:58:33.378Z,96728.81
2018-12-14T01:03:26.674Z,96726.89
2018-12-14T01:08:19.950Z,96717.36
2018-12-14T01:13:13.235Z,96725.88
2018-12-14T01:18:06.550Z,96724.75
2018-12-14T01:22:59.826Z,96726.86
2018-12-14T01:44:07.363Z,96754.80
2018-12-14T01:49:00.640Z,96756.22
2018-12-14T01:53:53.939Z,96752.72
2018-12-14T01:58:47.251Z,96757.50
2018-12-14T02:03:40.617Z,96756.49
2018-12-14T02:08:33.899Z,96756.16
2018-12-14T02:13:27.199Z,96751.18
2018-12-14T02:18:20.525Z,96745.58
2018-12-14T02:23:13.836Z,96752.30
2018-12-14T02:44:21.747Z,96755.88
2018-12-14T02:49:15.110Z,96751.84
2018-12-14T02:54:08.416Z,96749.59
2018-12-14T02:59:01.828Z,96749.44
2018-12-14T03:03:55.115Z,96758.27
2018-12-14T03:08:48.398Z,96765.33
2018-12-14T03:13:41.827Z,96782.27
2018-12-14T03:18:35.395Z,96769.98
2018-12-14T03:23:28.710Z,96785.86
2018-12-14T03:44:36.869Z,96780.64
2018-12-14T03:49:30.157Z,96782.88
2018-12-14T03:54:23.513Z,96776.76
2018-12-14T03:59:16.814Z,96784.83
2018-12-14T04:04:10.100Z,96787.73
2018-12-14T04:09:04.669Z,96787.86
2018-12-14T04:13:57.975Z,96792.37
2018-12-14T04:18:51.268Z,96794.97
2018-12-14T04:23:44.564Z,96794.19
2018-12-14T04:44:52.218Z,96798.59
2018-12-14T04:49:45.859Z,96794.91
2018-12-14T04:54:39.145Z,96789.89
2018-12-14T04:59:32.426Z,96798.55
2018-12-14T05:04:25.733Z,96810.28
2018-12-14T05:09:19.023Z,96811.08
2018-12-14T05:14:12.324Z,96820.73
2018-12-14T05:19:05.604Z,96826.15
2018-12-14T05:23:58.958Z,96825.53
2018-12-14T05:45:06.657Z,96827.01
2018-12-14T05:49:59.939Z,96828.12
2018-12-14T05:54:53.227Z,96833.17
2018-12-14T05:59:46.530Z,96844.64
2018-12-14T06:04:39.892Z,96843.76
2018-12-14T06:09:33.197Z,96837.27
2018-12-14T06:14:26.484Z,96842.92
2018-12-14T06:19:19.829Z,96851.09
2018-12-14T06:24:13.188Z,96852.09
2018-12-14T06:45:21.133Z,96859.68
2018-12-14T06:50:14.432Z,96861.74
2018-12-14T06:55:07.798Z,96869.19
2018-12-14T07:00:01.193Z,96868.40
2018-12-14T07:04:54.483Z,96869.97
2018-12-14T07:09:47.764Z,96872.88
2018-12-14T07:14:41.059Z,96875.50
2018-12-14T07:19:34.351Z,96882.78
2018-12-14T07:24:28.082Z,96882.33
2018-12-14T07:45:36.529Z,96913.88
2018-12-14T07:50:30.135Z,96914.71
2018-12-14T07:55:23.638Z,96917.95
2018-12-14T08:00:17.314Z,96916.88
2018-12-14T08:05:10.664Z,96915.43
2018-12-14T08:10:05.047Z,96913.84
2018-12-14T08:15:01.399Z,96912.03
2018-12-14T08:19:54.789Z,96921.98
2018-12-14T08:24:48.051Z,96919.41
2018-12-14T08:45:58.607Z,96948.89
2018-12-14T08:50:52.504Z,96953.13
2018-12-14T08:55:46.437Z,96958.32
2018-12-14T09:00:39.763Z,96965.52
2018-12-14T09:05:33.362Z,96974.34
2018-12-14T09:10:26.765Z,96980.73
2018-12-14T09:15:25.932Z,96983.75
2018-12-14T09:20:19.483Z,96975.59
2018-12-14T09:25:15.351Z,96995.42
2018-12-14T09:46:23.691Z,97008.41
2018-12-14T09:51:17.148Z,97003.16
2018-12-14T09:56:16.005Z,97016.09
2018-12-14T10:01:12.328Z,97022.34
2018-12-14T10:06:15.882Z,97019.00
2018-12-14T10:11:13.136Z,97011.97
2018-12-14T10:16:07.560Z,97023.59
2018-12-14T10:21:03.690Z,97027.79
2018-12-14T10:26:01.764Z,97027.50
2018-12-14T10:47:09.307Z,97016.52
2018-12-14T10:52:02.978Z,97015.56
2018-12-14T10:56:56.293Z,97020.23
2018-12-14T11:01:57.768Z,97018.63
2018-12-14T11:06:51.189Z,97013.78
2018-12-14T11:11:44.753Z,97020.41
2018-12-14T11:16:39.051Z,97016.04
2018-12-14T11:21:32.453Z,97015.72
2018-12-14T11:26:34.474Z,97005.19
2018-12-14T11:47:50.594Z,97007.36
2018-12-14T11:52:46.105Z,97004.16
2018-12-14T11:57:40.707Z,97007.98
2018-12-14T12:02:42.888Z,97005.05
2018-12-14T12:07:35.263Z,97000.37
2018-12-14T12:12:38.201Z,96990.14
2018-12-14T12:17:32.776Z,96999.21
2018-12-14T12:22:27.055Z,96991.28
2018-12-14T12:27:22.323Z,96996.48
2018-12-14T12:48:37.112Z,96998.62
2018-12-14T12:53:30.779Z,97001.66
2018-12-14T12:58:24.080Z,96997.48
2018-12-14T13:03:18.138Z,97005.86
2018-12-14T13:08:11.482Z,97003.11
2018-12-14T13:13:04.890Z,97000.80
2018-12-14T13:17:58.206Z,96997.11
2018-12-14T13:22:51.487Z,97004.87
2018-12-14T13:27:44.784Z,97007.42
2018-12-14T13:48:52.350Z,97030.53
2018-12-14T13:53:46.890Z,97033.55
2018-12-14T13:58:40.864Z,97047.95
2018-12-14T14:03:34.743Z,97043.95
2018-12-14T14:08:28.033Z,97052.95
2018-12-14T14:13:21.617Z,97060.03
2018-12-14T14:18:15.149Z,97066.34
2018-12-14T14:23:08.519Z,97077.56
2018-12-14T14:28:02.066Z,97070.84
2018-12-14T14:32:55.695Z,97088.88
2018-12-14T14:54:04.307Z,97112.30
2018-12-14T14:58:57.609Z,97122.83
2018-12-14T15:03:50.894Z,97122.05
2018-12-14T15:08:44.369Z,97132.16
2018-12-14T15:13:37.806Z,97137.19
2018-12-14T15:34:45.500Z,97152.67
2018-12-14T15:39:38.867Z,97157.14
2018-12-14T15:44:32.293Z,97165.33
2018-12-14T15:49:25.614Z,97167.16
2018-12-14T15:54:18.895Z,97170.70
2018-12-14T16:10:01.925Z,97185.41
2018-12-14T16:14:55.242Z,97201.77
2018-12-14T16:19:48.727Z,97202.50
2018-12-14T16:24:42.106Z,97205.59
2018-12-14T16:45:49.707Z,97238.26
2018-12-14T16:50:42.992Z,97242.74
2018-12-14T16:55:36.261Z,97251.53
2018-12-14T17:00:29.657Z,97265.79
2018-12-14T17:05:23.134Z,97267.03
2018-12-14T17:10:16.522Z,97264.72
2018-12-14T17:15:09.979Z,97269.20
2018-12-14T17:20:03.512Z,97278.86
2018-12-14T17:24:56.856Z,97281.23
2018-12-14T17:46:04.707Z,97297.89
2018-12-14T17:50:58.041Z,97316.16
2018-12-14T17:55:51.325Z,97311.13
2018-12-14T18:00:45.365Z,97318.52
2018-12-14T18:05:38.967Z,97328.41
2018-12-14T18:10:32.464Z,97331.29
2018-12-14T18:15:25.884Z,97335.41
2018-12-14T18:20:19.264Z,97333.98
2018-12-14T18:25:12.842Z,97338.06
2018-12-14T18:46:20.450Z,97359.28
2018-12-14T18:51:13.792Z,97368.02
2018-12-14T18:56:07.072Z,97368.73
2018-12-14T19:01:00.361Z,97371.13
2018-12-14T19:05:53.657Z,97383.56
2018-12-14T19:10:47.871Z,97386.84
2018-12-14T19:15:41.204Z,97386.17
2018-12-14T19:20:34.485Z,97391.88
2018-12-14T19:25:27.755Z,97399.09
2018-12-14T19:46:34.855Z,97412.05
2018-12-14T19:51:28.108Z,97418.84
2018-12-14T19:56:21.394Z,97415.38
2018-12-14T20:01:14.679Z,97418.91
2018-12-14T20:06:07.998Z,97424.49
2018-12-14T20:11:01.288Z,97429.52
2018-12-14T20:15:57.561Z,97428.08
2018-12-14T20:20:49.912Z,97424.95
2018-12-14T20:25:43.195Z,97430.63
2018-12-14T20:46:51.261Z,97451.88
2018-12-14T20:51:44.568Z,97450.94
2018-12-14T20:56:38.002Z,97446.98
2018-12-14T21:01:31.341Z,97446.47
2018-12-14T21:06:24.610Z,97443.73
2018-12-14T21:11:17.962Z,97448.44
2018-12-14T21:16:11.340Z,97440.93
2018-12-14T21:21:04.704Z,97447.56
2018-12-14T21:25:58.003Z,97441.98
2018-12-14T21:47:05.546Z,97438.07
2018-12-14T21:51:58.811Z,97439.56
2018-12-14T21:56:52.105Z,97436.17
2018-12-14T22:01:45.587Z,97427.08
2018-12-14T22:06:38.887Z,97431.32
2018-12-14T22:11:32.163Z,97431.78
2018-12-14T22:16:25.464Z,97430.43
2018-12-14T22:21:18.735Z,97432.67
2018-12-14T22:26:12.124Z,97423.94
2018-12-14T22:47:20.179Z,97420.50
2018-12-14T22:52:13.490Z,97421.07
2018-12-14T22:57:06.792Z,97415.95
2018-12-14T23:02:00.073Z,97410.42
2018-12-14T23:06:53.383Z,97414.56
2018-12-14T23:11:46.651Z,97411.93
2018-12-14T23:16:39.950Z,97419.53
2018-12-14T23:21:33.383Z,97418.02
2018-12-14T23:26:26.719Z,97426.27
2018-12-14T23:47:34.288Z,97424.36
2018-12-14T23:52:27.886Z,97426.50
2018-12-14T23:57:21.186Z,97431.02
